sensor_id;sensor_type;location;lat;lon;timestamp;P1;durP1;ratioP1;P2;durP2;ratioP2
21416;SDS011;10869;52.238;10.716;2024-03-23T00:51:47;17.60;;;7.07;;
21416;SDS011;10869;52.238;10.716;2024-03-23T00:54:13;18.10;;;8.03;;
21416;SDS011;10869;52.238;10.716;2024-03-23T00:56:39;19.77;;;7.03;;
21416;SDS011;10869;52.238;10.716;2024-03-23T00:59:05;23.27;;;7.93;;
21416;SDS011;10869;52.238;10.716;2024-03-23T01:01:31;20.27;;;7.27;;
21416;SDS011;10869;52.238;10.716;2024-03-23T01:03:57;24.30;;;8.70;;
21416;SDS011;10869;52.238;10.716;2024-03-23T01:06:23;18.87;;;6.87;;
21416;SDS011;10869;52.238;10.716;2024-03-23T01:08:50;19.57;;;6.67;;
21416;SDS011;10869;52.238;10.716;2024-03-23T01:11:17;13.50;;;5.70;;
21416;SDS011;10869;52.238;10.716;2024-03-23T01:13:43;18.13;;;6.40;;
21416;SDS011;10869;52.238;10.716;2024-03-23T01:16:09;22.23;;;6.47;;
21416;SDS011;10869;52.238;10.716;2024-03-23T01:18:35;22.00;;;5.77;;
21416;SDS011;10869;52.238;10.716;2024-03-23T01:21:00;19.77;;;5.20;;
21416;SDS011;10869;52.238;10.716;2024-03-23T01:23:26;21.83;;;6.00;;
21416;SDS011;10869;52.238;10.716;2024-03-23T01:25:52;18.60;;;6.20;;
21416;SDS011;10869;52.238;10.716;2024-03-23T01:28:19;18.10;;;5.37;;
21416;SDS011;10869;52.238;10.716;2024-03-23T01:30:46;17.43;;;6.17;;
21416;SDS011;10869;52.238;10.716;2024-03-23T01:33:12;18.70;;;6.67;;
21416;SDS011;10869;52.238;10.716;2024-03-23T01:35:39;19.73;;;7.07;;
21416;SDS011;10869;52.238;10.716;2024-03-23T01:38:05;18.80;;;6.73;;
21416;SDS011;10869;52.238;10.716;2024-03-23T01:40:31;24.00;;;6.80;;
21416;SDS011;10869;52.238;10.716;2024-03-23T01:42:57;26.03;;;8.50;;
21416;SDS011;10869;52.238;10.716;2024-03-23T01:45:27;21.90;;;6.70;;
21416;SDS011;10869;52.238;10.716;2024-03-23T01:47:53;17.93;;;6.90;;
21416;SDS011;10869;52.238;10.716;2024-03-23T01:50:19;20.33;;;7.63;;
21416;SDS011;10869;52.238;10.716;2024-03-23T01:52:46;21.63;;;7.53;;
21416;SDS011;10869;52.238;10.716;2024-03-23T01:55:13;17.93;;;7.43;;
21416;SDS011;10869;52.238;10.716;2024-03-23T01:57:39;22.10;;;7.70;;
21416;SDS011;10869;52.238;10.716;2024-03-23T02:00:05;16.87;;;6.93;;
21416;SDS011;10869;52.238;10.716;2024-03-23T02:02:31;14.37;;;6.87;;
21416;SDS011;10869;52.238;10.716;2024-03-23T02:04:57;18.47;;;7.63;;
21416;SDS011;10869;52.238;10.716;2024-03-23T02:07:23;24.50;;;7.83;;
21416;SDS011;10869;52.238;10.716;2024-03-23T02:09:50;24.10;;;8.07;;
21416;SDS011;10869;52.238;10.716;2024-03-23T02:12:19;21.57;;;8.27;;
21416;SDS011;10869;52.238;10.716;2024-03-23T02:14:46;25.83;;;9.00;;
21416;SDS011;10869;52.238;10.716;2024-03-23T02:17:12;28.00;;;8.47;;
21416;SDS011;10869;52.238;10.716;2024-03-23T02:19:38;24.10;;;8.50;;
21416;SDS011;10869;52.238;10.716;2024-03-23T02:22:04;23.47;;;8.77;;
21416;SDS011;10869;52.238;10.716;2024-03-23T02:24:30;22.67;;;8.67;;
21416;SDS011;10869;52.238;10.716;2024-03-23T02:26:56;26.50;;;9.27;;
21416;SDS011;10869;52.238;10.716;2024-03-23T02:29:22;31.23;;;10.97;;
21416;SDS011;10869;52.238;10.716;2024-03-23T02:31:48;19.47;;;8.83;;
21416;SDS011;10869;52.238;10.716;2024-03-23T02:34:14;22.53;;;8.10;;
21416;SDS011;10869;52.238;10.716;2024-03-23T02:40:01;21.80;;;8.40;;
21416;SDS011;10869;52.238;10.716;2024-03-23T02:42:28;26.20;;;9.37;;
21416;SDS011;10869;52.238;10.716;2024-03-23T02:44:54;20.27;;;8.23;;
21416;SDS011;10869;52.238;10.716;2024-03-23T02:47:19;24.60;;;9.53;;
21416;SDS011;10869;52.238;10.716;2024-03-23T02:49:45;21.17;;;9.80;;
21416;SDS011;10869;52.238;10.716;2024-03-23T02:52:11;29.77;;;10.23;;
21416;SDS011;10869;52.238;10.716;2024-03-23T02:54:37;22.63;;;8.03;;
21416;SDS011;10869;52.238;10.716;2024-03-23T02:57:03;21.87;;;8.03;;
21416;SDS011;10869;52.238;10.716;2024-03-23T02:59:29;26.50;;;8.70;;
21416;SDS011;10869;52.238;10.716;2024-03-23T03:01:55;23.87;;;8.80;;
21416;SDS011;10869;52.238;10.716;2024-03-23T03:04:21;25.00;;;7.83;;
21416;SDS011;10869;52.238;10.716;2024-03-23T03:06:47;26.07;;;8.43;;
21416;SDS011;10869;52.238;10.716;2024-03-23T03:09:14;24.53;;;8.77;;
21416;SDS011;10869;52.238;10.716;2024-03-23T03:11:40;19.50;;;6.67;;
21416;SDS011;10869;52.238;10.716;2024-03-23T03:14:06;22.63;;;7.30;;
21416;SDS011;10869;52.238;10.716;2024-03-23T03:16:33;21.23;;;6.30;;
21416;SDS011;10869;52.238;10.716;2024-03-23T03:18:59;35.87;;;8.27;;
21416;SDS011;10869;52.238;10.716;2024-03-23T03:21:25;16.93;;;6.60;;
21416;SDS011;10869;52.238;10.716;2024-03-23T03:23:51;23.60;;;6.87;;
21416;SDS011;10869;52.238;10.716;2024-03-23T03:26:17;21.60;;;7.33;;
21416;SDS011;10869;52.238;10.716;2024-03-23T03:28:42;13.50;;;5.50;;
21416;SDS011;10869;52.238;10.716;2024-03-23T03:31:17;21.30;;;6.93;;
21416;SDS011;10869;52.238;10.716;2024-03-23T03:33:43;21.40;;;6.50;;
21416;SDS011;10869;52.238;10.716;2024-03-23T03:36:09;29.17;;;8.33;;
21416;SDS011;10869;52.238;10.716;2024-03-23T03:38:35;22.43;;;6.47;;
21416;SDS011;10869;52.238;10.716;2024-03-23T03:41:02;20.43;;;6.30;;
21416;SDS011;10869;52.238;10.716;2024-03-23T03:43:28;15.47;;;5.53;;
21416;SDS011;10869;52.238;10.716;2024-03-23T03:45:54;28.13;;;6.73;;
21416;SDS011;10869;52.238;10.716;2024-03-23T03:48:21;23.43;;;6.80;;
21416;SDS011;10869;52.238;10.716;2024-03-23T03:50:48;23.87;;;7.30;;
21416;SDS011;10869;52.238;10.716;2024-03-23T03:53:14;18.53;;;5.37;;
21416;SDS011;10869;52.238;10.716;2024-03-23T03:55:40;20.80;;;6.10;;
21416;SDS011;10869;52.238;10.716;2024-03-23T03:58:06;18.67;;;5.53;;
21416;SDS011;10869;52.238;10.716;2024-03-23T04:00:32;23.03;;;5.73;;
21416;SDS011;10869;52.238;10.716;2024-03-23T04:02:57;24.03;;;7.77;;
21416;SDS011;10869;52.238;10.716;2024-03-23T04:05:23;19.03;;;6.40;;
21416;SDS011;10869;52.238;10.716;2024-03-23T04:07:49;19.77;;;6.00;;
21416;SDS011;10869;52.238;10.716;2024-03-23T04:10:15;22.27;;;7.43;;
21416;SDS011;10869;52.238;10.716;2024-03-23T04:12:41;26.47;;;8.60;;
21416;SDS011;10869;52.238;10.716;2024-03-23T04:15:08;21.97;;;7.50;;
21416;SDS011;10869;52.238;10.716;2024-03-23T04:17:34;23.33;;;7.57;;
21416;SDS011;10869;52.238;10.716;2024-03-23T04:20:00;25.17;;;7.93;;
21416;SDS011;10869;52.238;10.716;2024-03-23T04:22:26;25.07;;;7.20;;
21416;SDS011;10869;52.238;10.716;2024-03-23T04:24:56;23.03;;;6.93;;
21416;SDS011;10869;52.238;10.716;2024-03-23T04:27:25;22.80;;;7.67;;
21416;SDS011;10869;52.238;10.716;2024-03-23T04:29:51;24.23;;;6.93;;
21416;SDS011;10869;52.238;10.716;2024-03-23T04:32:20;17.60;;;6.40;;
21416;SDS011;10869;52.238;10.716;2024-03-23T04:34:46;16.90;;;6.10;;
21416;SDS011;10869;52.238;10.716;2024-03-23T04:37:11;18.33;;;6.93;;
21416;SDS011;10869;52.238;10.716;2024-03-23T04:39:37;16.27;;;6.23;;
21416;SDS011;10869;52.238;10.716;2024-03-23T04:42:03;23.90;;;7.00;;
21416;SDS011;10869;52.238;10.716;2024-03-23T04:44:30;22.87;;;7.70;;
21416;SDS011;10869;52.238;10.716;2024-03-23T04:46:56;21.03;;;6.63;;
21416;SDS011;10869;52.238;10.716;2024-03-23T04:49:22;18.20;;;7.00;;
21416;SDS011;10869;52.238;10.716;2024-03-23T04:51:48;21.17;;;7.17;;
21416;SDS011;10869;52.238;10.716;2024-03-23T04:54:14;23.60;;;7.20;;
21416;SDS011;10869;52.238;10.716;2024-03-23T04:56:40;20.73;;;7.60;;
21416;SDS011;10869;52.238;10.716;2024-03-23T04:59:07;19.53;;;6.60;;
21416;SDS011;10869;52.238;10.716;2024-03-23T05:01:33;23.27;;;6.77;;
21416;SDS011;10869;52.238;10.716;2024-03-23T05:07:20;19.67;;;7.53;;
21416;SDS011;10869;52.238;10.716;2024-03-23T05:09:46;21.47;;;7.47;;
21416;SDS011;10869;52.238;10.716;2024-03-23T05:12:13;21.63;;;7.67;;
21416;SDS011;10869;52.238;10.716;2024-03-23T05:14:39;22.13;;;8.83;;
21416;SDS011;10869;52.238;10.716;2024-03-23T05:17:05;17.30;;;7.13;;
21416;SDS011;10869;52.238;10.716;2024-03-23T05:19:31;25.03;;;7.80;;
21416;SDS011;10869;52.238;10.716;2024-03-23T05:21:56;21.13;;;8.30;;
21416;SDS011;10869;52.238;10.716;2024-03-23T05:24:22;22.23;;;8.10;;
21416;SDS011;10869;52.238;10.716;2024-03-23T05:26:48;18.17;;;7.40;;
21416;SDS011;10869;52.238;10.716;2024-03-23T05:29:13;23.10;;;8.07;;
21416;SDS011;10869;52.238;10.716;2024-03-23T05:31:42;42.27;;;10.83;;
21416;SDS011;10869;52.238;10.716;2024-03-23T05:34:08;24.17;;;8.47;;
21416;SDS011;10869;52.238;10.716;2024-03-23T05:36:34;18.43;;;7.57;;
21416;SDS011;10869;52.238;10.716;2024-03-23T05:39:01;31.77;;;8.17;;
21416;SDS011;10869;52.238;10.716;2024-03-23T05:44:49;17.70;;;7.57;;
21416;SDS011;10869;52.238;10.716;2024-03-23T05:47:14;24.27;;;8.40;;
21416;SDS011;10869;52.238;10.716;2024-03-23T05:53:04;25.40;;;6.97;;
21416;SDS011;10869;52.238;10.716;2024-03-23T05:56:00;15.53;;;5.57;;
21416;SDS011;10869;52.238;10.716;2024-03-23T06:08:55;23.07;;;5.40;;
21416;SDS011;10869;52.238;10.716;2024-03-23T06:11:21;25.60;;;5.70;;
21416;SDS011;10869;52.238;10.716;2024-03-23T06:13:46;29.30;;;5.70;;
21416;SDS011;10869;52.238;10.716;2024-03-23T06:16:12;20.80;;;5.80;;
21416;SDS011;10869;52.238;10.716;2024-03-23T06:18:39;15.77;;;5.80;;
21416;SDS011;10869;52.238;10.716;2024-03-23T06:21:05;17.43;;;4.77;;
21416;SDS011;10869;52.238;10.716;2024-03-23T06:23:40;18.27;;;5.13;;
21416;SDS011;10869;52.238;10.716;2024-03-23T06:26:07;19.83;;;5.00;;
21416;SDS011;10869;52.238;10.716;2024-03-23T06:28:33;21.03;;;4.20;;
21416;SDS011;10869;52.238;10.716;2024-03-23T06:34:21;16.73;;;3.80;;
21416;SDS011;10869;52.238;10.716;2024-03-23T06:36:48;20.63;;;3.67;;
21416;SDS011;10869;52.238;10.716;2024-03-23T06:42:36;23.53;;;3.63;;
21416;SDS011;10869;52.238;10.716;2024-03-23T06:48:24;25.60;;;3.80;;
21416;SDS011;10869;52.238;10.716;2024-03-23T06:54:14;15.33;;;4.10;;
21416;SDS011;10869;52.238;10.716;2024-03-23T07:00:02;19.20;;;5.23;;
21416;SDS011;10869;52.238;10.716;2024-03-23T07:05:50;21.90;;;5.10;;
21416;SDS011;10869;52.238;10.716;2024-03-23T07:08:16;16.57;;;4.87;;
21416;SDS011;10869;52.238;10.716;2024-03-23T07:10:46;17.83;;;4.47;;
21416;SDS011;10869;52.238;10.716;2024-03-23T07:16:34;10.33;;;2.37;;
21416;SDS011;10869;52.238;10.716;2024-03-23T07:22:22;20.47;;;3.57;;
21416;SDS011;10869;52.238;10.716;2024-03-23T07:31:38;16.00;;;3.07;;
21416;SDS011;10869;52.238;10.716;2024-03-23T07:37:26;11.20;;;3.00;;
21416;SDS011;10869;52.238;10.716;2024-03-23T07:39:52;16.90;;;3.80;;
21416;SDS011;10869;52.238;10.716;2024-03-23T07:42:18;19.70;;;5.23;;
21416;SDS011;10869;52.238;10.716;2024-03-23T07:54:40;14.00;;;3.33;;
21416;SDS011;10869;52.238;10.716;2024-03-23T07:57:06;14.87;;;3.30;;
21416;SDS011;10869;52.238;10.716;2024-03-23T07:59:32;15.13;;;3.63;;
21416;SDS011;10869;52.238;10.716;2024-03-23T08:01:59;23.50;;;4.13;;
21416;SDS011;10869;52.238;10.716;2024-03-23T08:04:29;15.13;;;3.50;;
21416;SDS011;10869;52.238;10.716;2024-03-23T08:06:55;16.23;;;3.17;;
21416;SDS011;10869;52.238;10.716;2024-03-23T08:12:45;14.60;;;2.43;;
21416;SDS011;10869;52.238;10.716;2024-03-23T08:15:11;23.13;;;3.73;;
21416;SDS011;10869;52.238;10.716;2024-03-23T08:17:37;16.73;;;2.70;;
21416;SDS011;10869;52.238;10.716;2024-03-23T08:20:06;15.90;;;2.93;;
21416;SDS011;10869;52.238;10.716;2024-03-23T08:22:33;18.13;;;3.77;;
21416;SDS011;10869;52.238;10.716;2024-03-23T08:24:59;12.63;;;3.97;;
21416;SDS011;10869;52.238;10.716;2024-03-23T08:27:24;17.40;;;3.67;;
21416;SDS011;10869;52.238;10.716;2024-03-23T08:29:50;13.40;;;3.30;;
21416;SDS011;10869;52.238;10.716;2024-03-23T08:32:16;9.97;;;3.00;;
21416;SDS011;10869;52.238;10.716;2024-03-23T08:34:42;18.40;;;3.67;;
21416;SDS011;10869;52.238;10.716;2024-03-23T08:37:07;11.97;;;3.23;;
21416;SDS011;10869;52.238;10.716;2024-03-23T08:39:33;14.47;;;2.80;;
21416;SDS011;10869;52.238;10.716;2024-03-23T08:41:59;22.20;;;3.93;;
21416;SDS011;10869;52.238;10.716;2024-03-23T08:44:25;14.97;;;3.23;;
21416;SDS011;10869;52.238;10.716;2024-03-23T08:50:13;15.60;;;2.60;;
21416;SDS011;10869;52.238;10.716;2024-03-23T08:52:38;14.87;;;2.70;;
21416;SDS011;10869;52.238;10.716;2024-03-23T08:55:04;15.00;;;3.13;;
21416;SDS011;10869;52.238;10.716;2024-03-23T08:57:30;19.70;;;3.60;;
21416;SDS011;10869;52.238;10.716;2024-03-23T08:59:56;21.80;;;4.37;;
21416;SDS011;10869;52.238;10.716;2024-03-23T09:02:22;26.53;;;4.37;;
21416;SDS011;10869;52.238;10.716;2024-03-23T09:08:10;13.40;;;3.13;;
21416;SDS011;10869;52.238;10.716;2024-03-23T09:13:58;15.17;;;4.07;;
21416;SDS011;10869;52.238;10.716;2024-03-23T09:16:26;18.57;;;4.07;;
21416;SDS011;10869;52.238;10.716;2024-03-23T09:18:52;20.13;;;3.70;;
21416;SDS011;10869;52.238;10.716;2024-03-23T09:21:20;23.30;;;4.57;;
21416;SDS011;10869;52.238;10.716;2024-03-23T09:24:07;20.23;;;4.17;;
21416;SDS011;10869;52.238;10.716;2024-03-23T09:26:34;21.93;;;4.77;;
21416;SDS011;10869;52.238;10.716;2024-03-23T09:29:00;25.87;;;5.37;;
21416;SDS011;10869;52.238;10.716;2024-03-23T09:31:54;19.67;;;5.20;;
21416;SDS011;10869;52.238;10.716;2024-03-23T09:34:20;20.73;;;6.43;;
21416;SDS011;10869;52.238;10.716;2024-03-23T09:36:47;24.23;;;6.27;;
21416;SDS011;10869;52.238;10.716;2024-03-23T09:39:16;21.20;;;6.83;;
21416;SDS011;10869;52.238;10.716;2024-03-23T09:45:10;22.47;;;5.20;;
21416;SDS011;10869;52.238;10.716;2024-03-23T09:47:45;23.97;;;5.57;;
21416;SDS011;10869;52.238;10.716;2024-03-23T09:50:12;24.27;;;4.73;;
21416;SDS011;10869;52.238;10.716;2024-03-23T09:56:00;25.27;;;5.73;;
21416;SDS011;10869;52.238;10.716;2024-03-23T10:01:08;19.00;;;4.67;;
21416;SDS011;10869;52.238;10.716;2024-03-23T10:03:47;27.67;;;6.27;;
21416;SDS011;10869;52.238;10.716;2024-03-23T10:06:13;25.20;;;6.27;;
21416;SDS011;10869;52.238;10.716;2024-03-23T10:12:19;20.50;;;6.93;;
21416;SDS011;10869;52.238;10.716;2024-03-23T10:14:46;21.93;;;6.77;;
21416;SDS011;10869;52.238;10.716;2024-03-23T10:19:52;30.97;;;7.87;;
21416;SDS011;10869;52.238;10.716;2024-03-23T10:25:45;32.80;;;9.27;;
21416;SDS011;10869;52.238;10.716;2024-03-23T10:31:39;27.37;;;11.53;;
21416;SDS011;10869;52.238;10.716;2024-03-23T10:34:09;30.33;;;9.43;;
21416;SDS011;10869;52.238;10.716;2024-03-23T10:36:39;31.57;;;9.90;;
21416;SDS011;10869;52.238;10.716;2024-03-23T10:39:06;25.63;;;8.07;;
21416;SDS011;10869;52.238;10.716;2024-03-23T10:41:33;23.87;;;8.23;;
21416;SDS011;10869;52.238;10.716;2024-03-23T10:44:01;28.87;;;9.20;;
21416;SDS011;10869;52.238;10.716;2024-03-23T10:46:30;26.03;;;8.27;;
21416;SDS011;10869;52.238;10.716;2024-03-23T10:49:03;26.63;;;6.90;;
21416;SDS011;10869;52.238;10.716;2024-03-23T10:52:05;25.17;;;7.73;;
21416;SDS011;10869;52.238;10.716;2024-03-23T10:54:32;20.27;;;6.00;;
21416;SDS011;10869;52.238;10.716;2024-03-23T11:00:08;21.70;;;7.53;;
21416;SDS011;10869;52.238;10.716;2024-03-23T11:02:35;23.73;;;7.30;;
21416;SDS011;10869;52.238;10.716;2024-03-23T11:05:01;22.60;;;6.50;;
21416;SDS011;10869;52.238;10.716;2024-03-23T11:07:50;25.73;;;6.47;;
21416;SDS011;10869;52.238;10.716;2024-03-23T11:10:27;21.27;;;4.10;;
21416;SDS011;10869;52.238;10.716;2024-03-23T11:12:58;11.30;;;3.60;;
21416;SDS011;10869;52.238;10.716;2024-03-23T11:22:08;9.97;;;2.70;;
21416;SDS011;10869;52.238;10.716;2024-03-23T11:24:34;10.40;;;2.03;;
21416;SDS011;10869;52.238;10.716;2024-03-23T11:27:00;7.93;;;2.30;;
21416;SDS011;10869;52.238;10.716;2024-03-23T11:29:29;10.20;;;2.70;;
21416;SDS011;10869;52.238;10.716;2024-03-23T11:31:55;12.43;;;3.27;;
21416;SDS011;10869;52.238;10.716;2024-03-23T11:34:24;12.50;;;2.90;;
21416;SDS011;10869;52.238;10.716;2024-03-23T11:40:18;12.23;;;3.27;;
21416;SDS011;10869;52.238;10.716;2024-03-23T11:42:44;17.93;;;5.50;;
21416;SDS011;10869;52.238;10.716;2024-03-23T11:48:32;10.40;;;3.47;;
21416;SDS011;10869;52.238;10.716;2024-03-23T11:50:58;17.63;;;4.77;;
21416;SDS011;10869;52.238;10.716;2024-03-23T11:53:24;18.13;;;3.87;;
21416;SDS011;10869;52.238;10.716;2024-03-23T11:55:55;17.13;;;3.80;;
21416;SDS011;10869;52.238;10.716;2024-03-23T11:58:22;20.93;;;3.97;;
21416;SDS011;10869;52.238;10.716;2024-03-23T12:00:56;17.03;;;4.27;;
21416;SDS011;10869;52.238;10.716;2024-03-23T12:03:30;19.90;;;4.20;;
21416;SDS011;10869;52.238;10.716;2024-03-23T12:06:01;13.93;;;3.37;;
21416;SDS011;10869;52.238;10.716;2024-03-23T12:11:55;12.30;;;2.50;;
21416;SDS011;10869;52.238;10.716;2024-03-23T12:14:40;7.97;;;2.80;;
21416;SDS011;10869;52.238;10.716;2024-03-23T12:17:13;10.03;;;2.60;;
21416;SDS011;10869;52.238;10.716;2024-03-23T12:19:39;8.70;;;3.20;;
21416;SDS011;10869;52.238;10.716;2024-03-23T12:22:10;9.10;;;3.17;;
21416;SDS011;10869;52.238;10.716;2024-03-23T12:27:59;9.03;;;3.73;;
21416;SDS011;10869;52.238;10.716;2024-03-23T12:30:25;9.37;;;2.60;;
21416;SDS011;10869;52.238;10.716;2024-03-23T12:32:50;11.97;;;3.20;;
21416;SDS011;10869;52.238;10.716;2024-03-23T12:35:17;8.00;;;2.37;;
21416;SDS011;10869;52.238;10.716;2024-03-23T12:41:07;13.40;;;2.93;;
21416;SDS011;10869;52.238;10.716;2024-03-23T12:43:34;11.33;;;3.40;;
21416;SDS011;10869;52.238;10.716;2024-03-23T12:46:02;8.97;;;2.33;;
21416;SDS011;10869;52.238;10.716;2024-03-23T12:48:28;8.93;;;2.70;;
21416;SDS011;10869;52.238;10.716;2024-03-23T12:50:56;6.10;;;2.50;;
21416;SDS011;10869;52.238;10.716;2024-03-23T12:56:45;6.03;;;1.90;;
21416;SDS011;10869;52.238;10.716;2024-03-23T12:59:11;6.77;;;2.03;;
21416;SDS011;10869;52.238;10.716;2024-03-23T13:01:38;7.37;;;1.67;;
21416;SDS011;10869;52.238;10.716;2024-03-23T13:04:04;8.83;;;3.10;;
21416;SDS011;10869;52.238;10.716;2024-03-23T13:06:29;5.43;;;1.70;;
21416;SDS011;10869;52.238;10.716;2024-03-23T13:09:00;5.93;;;2.23;;
21416;SDS011;10869;52.238;10.716;2024-03-23T13:11:26;7.50;;;2.10;;
21416;SDS011;10869;52.238;10.716;2024-03-23T13:13:52;8.40;;;2.10;;
21416;SDS011;10869;52.238;10.716;2024-03-23T13:16:18;8.90;;;2.40;;
21416;SDS011;10869;52.238;10.716;2024-03-23T13:18:44;6.80;;;2.03;;
21416;SDS011;10869;52.238;10.716;2024-03-23T13:21:10;6.93;;;2.70;;
21416;SDS011;10869;52.238;10.716;2024-03-23T13:23:35;7.60;;;2.73;;
21416;SDS011;10869;52.238;10.716;2024-03-23T13:29:25;6.60;;;2.57;;
21416;SDS011;10869;52.238;10.716;2024-03-23T13:31:51;6.67;;;2.30;;
21416;SDS011;10869;52.238;10.716;2024-03-23T13:34:18;10.07;;;2.97;;
21416;SDS011;10869;52.238;10.716;2024-03-23T13:36:46;8.90;;;3.13;;
21416;SDS011;10869;52.238;10.716;2024-03-23T13:39:13;11.77;;;3.47;;
21416;SDS011;10869;52.238;10.716;2024-03-23T13:41:40;8.53;;;3.33;;
21416;SDS011;10869;52.238;10.716;2024-03-23T13:44:08;8.17;;;3.37;;
21416;SDS011;10869;52.238;10.716;2024-03-23T13:46:37;9.50;;;3.73;;
21416;SDS011;10869;52.238;10.716;2024-03-23T13:49:04;10.73;;;3.80;;
21416;SDS011;10869;52.238;10.716;2024-03-23T13:51:31;11.10;;;3.03;;
21416;SDS011;10869;52.238;10.716;2024-03-23T13:53:57;10.83;;;3.43;;
21416;SDS011;10869;52.238;10.716;2024-03-23T13:56:26;12.47;;;3.20;;
21416;SDS011;10869;52.238;10.716;2024-03-23T13:58:54;8.17;;;3.33;;
21416;SDS011;10869;52.238;10.716;2024-03-23T14:01:20;12.07;;;3.70;;
21416;SDS011;10869;52.238;10.716;2024-03-23T14:03:47;8.60;;;3.23;;
21416;SDS011;10869;52.238;10.716;2024-03-23T14:06:14;10.73;;;3.17;;
21416;SDS011;10869;52.238;10.716;2024-03-23T14:08:40;8.23;;;3.30;;
21416;SDS011;10869;52.238;10.716;2024-03-23T14:11:08;6.97;;;2.83;;
21416;SDS011;10869;52.238;10.716;2024-03-23T14:13:34;8.07;;;2.57;;
21416;SDS011;10869;52.238;10.716;2024-03-23T14:16:01;4.80;;;1.80;;
21416;SDS011;10869;52.238;10.716;2024-03-23T14:18:27;6.70;;;1.70;;
21416;SDS011;10869;52.238;10.716;2024-03-23T14:20:56;6.47;;;1.70;;
21416;SDS011;10869;52.238;10.716;2024-03-23T14:23:27;5.17;;;1.83;;
21416;SDS011;10869;52.238;10.716;2024-03-23T14:25:59;7.17;;;1.50;;
21416;SDS011;10869;52.238;10.716;2024-03-23T14:28:25;4.43;;;1.63;;
21416;SDS011;10869;52.238;10.716;2024-03-23T14:30:54;3.83;;;1.23;;
21416;SDS011;10869;52.238;10.716;2024-03-23T14:33:54;5.83;;;1.77;;
21416;SDS011;10869;52.238;10.716;2024-03-23T14:36:30;5.50;;;1.60;;
21416;SDS011;10869;52.238;10.716;2024-03-23T14:38:56;3.40;;;1.43;;
21416;SDS011;10869;52.238;10.716;2024-03-23T14:44:43;5.97;;;1.63;;
21416;SDS011;10869;52.238;10.716;2024-03-23T14:47:09;5.37;;;1.47;;
21416;SDS011;10869;52.238;10.716;2024-03-23T14:52:58;3.60;;;1.67;;
21416;SDS011;10869;52.238;10.716;2024-03-23T14:55:24;7.20;;;1.90;;
21416;SDS011;10869;52.238;10.716;2024-03-23T15:01:12;7.47;;;2.20;;
21416;SDS011;10869;52.238;10.716;2024-03-23T15:07:00;14.10;;;2.70;;
21416;SDS011;10869;52.238;10.716;2024-03-23T15:22:53;14.20;;;4.67;;
21416;SDS011;10869;52.238;10.716;2024-03-23T15:25:22;11.43;;;4.30;;
21416;SDS011;10869;52.238;10.716;2024-03-23T15:27:48;10.87;;;3.77;;
21416;SDS011;10869;52.238;10.716;2024-03-23T15:30:14;9.23;;;3.90;;
21416;SDS011;10869;52.238;10.716;2024-03-23T15:32:41;8.13;;;3.47;;
21416;SDS011;10869;52.238;10.716;2024-03-23T15:35:07;8.20;;;2.93;;
21416;SDS011;10869;52.238;10.716;2024-03-23T15:37:33;5.77;;;2.30;;
21416;SDS011;10869;52.238;10.716;2024-03-23T15:39:59;6.47;;;2.13;;
21416;SDS011;10869;52.238;10.716;2024-03-23T15:42:25;7.83;;;1.93;;
21416;SDS011;10869;52.238;10.716;2024-03-23T15:44:51;10.77;;;2.93;;
21416;SDS011;10869;52.238;10.716;2024-03-23T15:50:39;5.87;;;1.17;;
21416;SDS011;10869;52.238;10.716;2024-03-23T15:53:04;5.07;;;1.50;;
21416;SDS011;10869;52.238;10.716;2024-03-23T15:55:30;6.03;;;1.30;;
21416;SDS011;10869;52.238;10.716;2024-03-23T16:01:23;5.33;;;1.90;;
21416;SDS011;10869;52.238;10.716;2024-03-23T16:07:11;4.17;;;1.30;;
21416;SDS011;10869;52.238;10.716;2024-03-23T16:09:38;6.47;;;1.40;;
21416;SDS011;10869;52.238;10.716;2024-03-23T16:15:26;5.13;;;1.20;;
21416;SDS011;10869;52.238;10.716;2024-03-23T16:17:52;6.97;;;1.27;;
21416;SDS011;10869;52.238;10.716;2024-03-23T16:23:40;5.60;;;1.83;;
21416;SDS011;10869;52.238;10.716;2024-03-23T16:26:06;3.33;;;1.33;;
21416;SDS011;10869;52.238;10.716;2024-03-23T16:28:42;3.57;;;1.20;;
21416;SDS011;10869;52.238;10.716;2024-03-23T16:31:08;5.00;;;1.50;;
21416;SDS011;10869;52.238;10.716;2024-03-23T16:36:57;5.10;;;1.70;;
21416;SDS011;10869;52.238;10.716;2024-03-23T16:42:45;5.23;;;1.60;;
21416;SDS011;10869;52.238;10.716;2024-03-23T16:48:33;4.07;;;1.40;;
21416;SDS011;10869;52.238;10.716;2024-03-23T16:54:21;4.97;;;1.40;;
21416;SDS011;10869;52.238;10.716;2024-03-23T16:56:47;4.40;;;1.50;;
21416;SDS011;10869;52.238;10.716;2024-03-23T16:59:12;5.37;;;1.70;;
21416;SDS011;10869;52.238;10.716;2024-03-23T17:01:39;4.30;;;1.70;;
21416;SDS011;10869;52.238;10.716;2024-03-23T17:04:08;4.53;;;1.67;;
21416;SDS011;10869;52.238;10.716;2024-03-23T17:06:35;5.30;;;1.60;;
21416;SDS011;10869;52.238;10.716;2024-03-23T17:09:04;5.40;;;1.73;;
21416;SDS011;10869;52.238;10.716;2024-03-23T17:14:56;7.00;;;2.60;;
21416;SDS011;10869;52.238;10.716;2024-03-23T17:20:44;5.80;;;2.13;;
21416;SDS011;10869;52.238;10.716;2024-03-23T17:23:10;5.00;;;1.97;;
21416;SDS011;10869;52.238;10.716;2024-03-23T17:28:58;6.17;;;2.17;;
21416;SDS011;10869;52.238;10.716;2024-03-23T17:31:23;5.43;;;2.10;;
21416;SDS011;10869;52.238;10.716;2024-03-23T17:33:49;8.00;;;3.10;;
21416;SDS011;10869;52.238;10.716;2024-03-23T17:36:17;10.37;;;3.10;;
21416;SDS011;10869;52.238;10.716;2024-03-23T17:42:15;7.43;;;2.87;;
21416;SDS011;10869;52.238;10.716;2024-03-23T17:44:41;8.87;;;2.20;;
21416;SDS011;10869;52.238;10.716;2024-03-23T17:47:07;5.87;;;2.27;;
21416;SDS011;10869;52.238;10.716;2024-03-23T17:49:32;12.53;;;5.37;;
21416;SDS011;10869;52.238;10.716;2024-03-23T17:51:59;7.63;;;3.10;;
21416;SDS011;10869;52.238;10.716;2024-03-23T17:54:32;12.17;;;4.47;;
21416;SDS011;10869;52.238;10.716;2024-03-23T17:56:58;8.30;;;3.10;;
21416;SDS011;10869;52.238;10.716;2024-03-23T17:59:24;7.10;;;2.77;;
21416;SDS011;10869;52.238;10.716;2024-03-23T18:01:50;8.83;;;3.33;;
21416;SDS011;10869;52.238;10.716;2024-03-23T18:07:38;11.27;;;3.27;;
21416;SDS011;10869;52.238;10.716;2024-03-23T18:10:04;7.47;;;3.40;;
21416;SDS011;10869;52.238;10.716;2024-03-23T18:12:31;11.20;;;3.27;;
21416;SDS011;10869;52.238;10.716;2024-03-23T18:14:57;8.30;;;2.73;;
21416;SDS011;10869;52.238;10.716;2024-03-23T18:21:01;11.77;;;5.10;;
21416;SDS011;10869;52.238;10.716;2024-03-23T18:23:27;13.93;;;5.30;;
21416;SDS011;10869;52.238;10.716;2024-03-23T18:29:17;7.83;;;3.63;;
21416;SDS011;10869;52.238;10.716;2024-03-23T18:35:08;10.30;;;4.07;;
21416;SDS011;10869;52.238;10.716;2024-03-23T18:37:37;7.57;;;3.40;;
21416;SDS011;10869;52.238;10.716;2024-03-23T18:40:02;9.20;;;3.73;;
21416;SDS011;10869;52.238;10.716;2024-03-23T18:42:29;18.20;;;9.20;;
21416;SDS011;10869;52.238;10.716;2024-03-23T18:44:57;15.37;;;5.90;;
21416;SDS011;10869;52.238;10.716;2024-03-23T18:50:45;27.43;;;15.37;;
21416;SDS011;10869;52.238;10.716;2024-03-23T18:53:11;9.97;;;6.00;;
21416;SDS011;10869;52.238;10.716;2024-03-23T18:55:40;32.53;;;16.80;;
21416;SDS011;10869;52.238;10.716;2024-03-23T18:58:15;31.23;;;15.87;;
21416;SDS011;10869;52.238;10.716;2024-03-23T19:00:41;12.67;;;6.13;;
21416;SDS011;10869;52.238;10.716;2024-03-23T19:03:07;9.30;;;3.53;;
21416;SDS011;10869;52.238;10.716;2024-03-23T19:05:33;9.50;;;3.27;;